Time;durP1;ratioP1;P1;durP2;ratioP2;P2;SDS_P1;SDS_P2;PMS_P1;PMS_P2;Temp;Humidity;BMP_temperature;BMP_pressure;BME280_temperature;BME280_humidity;BME280_pressure;Samples;Min_cycle;Max_cycle;Signal;HPM_P1;HPM_P2
2022/12/08 00:01:11;;;;;;;2.55;0.65;;;;;;;;;;6299981;22;20021;-90
2022/12/08 00:03:37;;;;;;;4.28;0.63;;;;;;;;;;6300394;22;20750;-90
2022/12/08 00:11:31;;;;;;;2.20;0.60;;;;;;;;;;6328388;22;20348;-90
2022/12/08 00:13:57;;;;;;;3.97;0.70;;;;;;;;;;6329399;22;20003;-90
2022/12/08 00:16:22;;;;;;;3.95;0.50;;;;;;;;;;6329715;22;20007;-90
2022/12/08 00:18:47;;;;;;;3.38;0.80;;;;;;;;;;6330864;22;20003;-91
2022/12/08 00:24:19;;;;;;;4.45;0.73;;;;;;;;;;6310549;22;20067;-90
2022/12/08 00:26:45;;;;;;;3.00;0.50;;;;;;;;;;6330433;22;20339;-90
2022/12/08 00:29:10;;;;;;;4.82;0.70;;;;;;;;;;6302152;22;20018;-90
2022/12/08 00:31:36;;;;;;;2.28;0.55;;;;;;;;;;6302229;22;20467;-90
2022/12/08 00:34:02;;;;;;;5.72;0.70;;;;;;;;;;6326987;22;20495;-89
2022/12/08 00:36:27;;;;;;;4.18;0.57;;;;;;;;;;6328949;22;20003;-89
2022/12/08 00:38:53;;;;;;;2.75;0.55;;;;;;;;;;6302063;22;20010;-90
2022/12/08 00:44:04;;;;;;;2.92;0.75;;;;;;;;;;6332711;22;20537;-89
2022/12/08 00:46:29;;;;;;;3.30;0.47;;;;;;;;;;6331489;22;20014;-91
2022/12/08 00:48:54;;;;;;;3.13;0.77;;;;;;;;;;6329934;22;20718;-90
2022/12/08 00:51:20;;;;;;;2.67;0.60;;;;;;;;;;6330361;22;20002;-90
2022/12/08 00:53:45;;;;;;;1.88;0.45;;;;;;;;;;6329911;22;20048;-90
2022/12/08 00:56:10;;;;;;;3.55;0.70;;;;;;;;;;6302161;22;20002;-90
2022/12/08 00:58:35;;;;;;;2.28;0.40;;;;;;;;;;6301476;22;21049;-90
2022/12/08 01:01:01;;;;;;;2.38;0.52;;;;;;;;;;6302859;22;20012;-90
2022/12/08 01:03:26;;;;;;;4.60;0.70;;;;;;;;;;6329451;22;20022;-90
2022/12/08 01:05:51;;;;;;;2.28;0.50;;;;;;;;;;6327734;22;20011;-89
2022/12/08 01:08:16;;;;;;;2.53;0.60;;;;;;;;;;6330333;22;20075;-90
2022/12/08 01:10:42;;;;;;;5.18;0.50;;;;;;;;;;6329409;22;20018;-90
2022/12/08 01:13:07;;;;;;;2.42;0.57;;;;;;;;;;6302605;22;20782;-90
2022/12/08 01:15:32;;;;;;;3.55;0.70;;;;;;;;;;6326510;22;20003;-89
2022/12/08 01:17:57;;;;;;;4.25;0.70;;;;;;;;;;6302720;22;20013;-90
2022/12/08 01:20:23;;;;;;;1.80;0.38;;;;;;;;;;6327277;22;20347;-90
2022/12/08 01:22:48;;;;;;;4.75;0.70;;;;;;;;;;6329484;22;20429;-90
2022/12/08 01:25:13;;;;;;;7.18;0.60;;;;;;;;;;6329961;22;20015;-90
2022/12/08 01:27:39;;;;;;;2.22;0.57;;;;;;;;;;6329794;22;20130;-90
2022/12/08 01:30:04;;;;;;;2.60;0.40;;;;;;;;;;6332348;22;20009;-90
2022/12/08 01:32:30;;;;;;;2.42;0.52;;;;;;;;;;6331696;22;20602;-90
2022/12/08 01:34:56;;;;;;;1.85;0.38;;;;;;;;;;6329569;22;20018;-89
2022/12/08 01:37:22;;;;;;;2.67;0.50;;;;;;;;;;6302701;22;20026;-90
2022/12/08 01:39:47;;;;;;;3.13;0.73;;;;;;;;;;6303461;22;20027;-90
2022/12/08 01:42:17;;;;;;;2.97;0.60;;;;;;;;;;6301763;22;20011;-90
2022/12/08 01:44:42;;;;;;;2.92;0.40;;;;;;;;;;6303923;22;20037;-90
2022/12/08 01:47:08;;;;;;;3.58;0.50;;;;;;;;;;6332716;22;20328;-91
2022/12/08 01:49:34;;;;;;;2.05;0.38;;;;;;;;;;6332032;22;20168;-91
2022/12/08 01:52:03;;;;;;;3.55;0.68;;;;;;;;;;6302640;22;20011;-90
2022/12/08 01:54:33;;;;;;;1.90;0.40;;;;;;;;;;6303313;22;20535;-91
2022/12/08 01:57:09;;;;;;;1.05;0.30;;;;;;;;;;6305886;22;20078;-90
2022/12/08 01:59:37;;;;;;;4.10;0.50;;;;;;;;;;6302251;22;20014;-90
2022/12/08 02:02:02;;;;;;;5.53;0.60;;;;;;;;;;6302691;22;20029;-90
2022/12/08 02:04:27;;;;;;;5.82;0.75;;;;;;;;;;6329985;22;20015;-89
2022/12/08 02:06:53;;;;;;;4.30;0.55;;;;;;;;;;6330694;22;19998;-90
2022/12/08 02:09:19;;;;;;;1.95;0.50;;;;;;;;;;6329496;22;19998;-90
2022/12/08 02:11:44;;;;;;;3.70;0.50;;;;;;;;;;6301981;22;20019;-90
2022/12/08 02:14:10;;;;;;;3.92;0.65;;;;;;;;;;6302322;22;20010;-90
2022/12/08 02:16:42;;;;;;;3.65;0.50;;;;;;;;;;6328370;22;20003;-90
2022/12/08 02:19:27;;;;;;;4.32;0.82;;;;;;;;;;6302629;22;20003;-90
2022/12/08 02:22:03;;;;;;;2.42;0.55;;;;;;;;;;6302009;22;20013;-90
2022/12/08 02:24:31;;;;;;;2.72;0.68;;;;;;;;;;6331231;22;20005;-90
2022/12/08 02:27:10;;;;;;;3.10;0.60;;;;;;;;;;6302327;22;20015;-90
2022/12/08 02:29:52;;;;;;;3.50;0.60;;;;;;;;;;6303131;22;20475;-90
2022/12/08 02:32:17;;;;;;;1.23;0.45;;;;;;;;;;6302825;22;20033;-90
2022/12/08 02:34:45;;;;;;;1.65;0.40;;;;;;;;;;6300737;22;20417;-90
2022/12/08 02:37:26;;;;;;;3.08;1.02;;;;;;;;;;6329902;22;20037;-89
2022/12/08 02:39:58;;;;;;;2.55;0.50;;;;;;;;;;6302821;22;20007;-90
2022/12/08 02:42:31;;;;;;;2.03;0.55;;;;;;;;;;6331138;22;20003;-90
2022/12/08 02:45:00;;;;;;;2.58;0.50;;;;;;;;;;6328067;22;20011;-90
2022/12/08 02:47:26;;;;;;;2.15;0.52;;;;;;;;;;6302638;22;20068;-90
2022/12/08 02:49:53;;;;;;;3.78;0.60;;;;;;;;;;6302330;22;20016;-90
2022/12/08 02:52:22;;;;;;;3.70;0.40;;;;;;;;;;6327980;22;20291;-90
2022/12/08 02:54:59;;;;;;;3.47;0.70;;;;;;;;;;6330875;22;20175;-90
2022/12/08 02:57:41;;;;;;;2.95;0.60;;;;;;;;;;6301208;22;20018;-89
2022/12/08 03:00:08;;;;;;;2.53;0.57;;;;;;;;;;6299213;22;20006;-88
2022/12/08 03:02:45;;;;;;;5.75;0.85;;;;;;;;;;6231345;22;20008;-92
2022/12/08 03:05:12;;;;;;;3.25;0.47;;;;;;;;;;6266638;22;20103;-92
2022/12/08 03:07:46;;;;;;;4.90;0.68;;;;;;;;;;6294171;22;20007;-93
2022/12/08 03:10:15;;;;;;;1.77;0.40;;;;;;;;;;6331540;22;20022;-94
2022/12/08 03:12:52;;;;;;;3.38;0.50;;;;;;;;;;6331516;22;20428;-93
2022/12/08 03:15:18;;;;;;;2.53;0.50;;;;;;;;;;6302953;22;20737;-94
2022/12/08 03:17:55;;;;;;;5.38;0.60;;;;;;;;;;6303858;22;20041;-92
2022/12/08 03:20:22;;;;;;;2.75;0.50;;;;;;;;;;6305872;22;19999;-93
2022/12/08 03:22:49;;;;;;;2.67;0.60;;;;;;;;;;6305107;22;20031;-92
2022/12/08 03:25:16;;;;;;;4.25;0.70;;;;;;;;;;6305969;22;20078;-94
2022/12/08 03:27:42;;;;;;;1.88;0.40;;;;;;;;;;6333948;22;19999;-95
2022/12/08 03:30:08;;;;;;;3.58;0.70;;;;;;;;;;6331648;22;20103;-94
2022/12/08 03:32:36;;;;;;;2.88;0.50;;;;;;;;;;6304505;22;20005;-94
2022/12/08 03:35:08;;;;;;;1.63;0.38;;;;;;;;;;6332314;22;20690;-96
2022/12/08 03:37:37;;;;;;;3.25;0.50;;;;;;;;;;6305681;22;20017;-95
2022/12/08 03:40:03;;;;;;;4.68;0.60;;;;;;;;;;6305426;22;20045;-95
2022/12/08 03:42:29;;;;;;;3.88;0.77;;;;;;;;;;6333488;22;19997;-96
2022/12/08 03:44:54;;;;;;;1.55;0.38;;;;;;;;;;6333896;22;20081;-94
2022/12/08 03:47:19;;;;;;;1.45;0.40;;;;;;;;;;6305199;22;20084;-94
2022/12/08 03:49:44;;;;;;;3.05;0.63;;;;;;;;;;6304311;22;20018;-95
2022/12/08 03:52:10;;;;;;;5.07;0.50;;;;;;;;;;6333248;22;20261;-93
2022/12/08 03:54:35;;;;;;;3.15;0.70;;;;;;;;;;6333942;22;20018;-93
2022/12/08 03:57:00;;;;;;;2.67;0.47;;;;;;;;;;6333450;22;20068;-94
2022/12/08 03:59:25;;;;;;;3.15;0.65;;;;;;;;;;6305130;22;20002;-94
2022/12/08 04:01:51;;;;;;;2.70;0.45;;;;;;;;;;6330933;22;20005;-93
2022/12/08 04:04:16;;;;;;;3.13;0.55;;;;;;;;;;6302537;22;20018;-94
2022/12/08 04:06:41;;;;;;;3.45;0.60;;;;;;;;;;6332018;22;20005;-94
2022/12/08 04:09:06;;;;;;;2.50;0.45;;;;;;;;;;6303293;22;20015;-94
2022/12/08 04:11:32;;;;;;;1.77;0.40;;;;;;;;;;6304177;22;20011;-95
2022/12/08 04:13:57;;;;;;;3.92;0.50;;;;;;;;;;6309639;22;20057;-94
2022/12/08 04:16:23;;;;;;;2.42;0.50;;;;;;;;;;6307626;22;20007;-95
2022/12/08 04:18:49;;;;;;;2.40;0.60;;;;;;;;;;6306522;22;20486;-94
2022/12/08 04:21:15;;;;;;;1.42;0.40;;;;;;;;;;6304840;22;20002;-93
2022/12/08 04:23:40;;;;;;;6.63;0.57;;;;;;;;;;6332234;22;20676;-94
2022/12/08 04:26:05;;;;;;;4.57;0.73;;;;;;;;;;6310041;22;20440;-94
2022/12/08 04:28:30;;;;;;;4.63;0.77;;;;;;;;;;6307290;22;20007;-94
2022/12/08 04:31:08;;;;;;;2.00;0.50;;;;;;;;;;6337206;22;20019;-93
2022/12/08 04:33:34;;;;;;;1.98;0.50;;;;;;;;;;6305837;22;20002;-94
2022/12/08 04:35:59;;;;;;;3.67;0.40;;;;;;;;;;6304818;22;19999;-95
2022/12/08 04:38:25;;;;;;;3.00;0.47;;;;;;;;;;6333694;22;20007;-94
2022/12/08 04:40:51;;;;;;;3.78;0.60;;;;;;;;;;6306590;22;20011;-94
2022/12/08 04:43:16;;;;;;;2.97;0.70;;;;;;;;;;6335770;22;19998;-94
2022/12/08 04:45:41;;;;;;;5.50;0.80;;;;;;;;;;6304723;22;20003;-94
2022/12/08 04:48:08;;;;;;;2.10;0.60;;;;;;;;;;6306060;22;20058;-95
2022/12/08 04:50:33;;;;;;;3.05;0.80;;;;;;;;;;6307199;22;20011;-96
2022/12/08 04:53:01;;;;;;;2.20;0.52;;;;;;;;;;6306840;22;19995;-94
2022/12/08 04:55:26;;;;;;;2.60;0.60;;;;;;;;;;6306374;22;20072;-94
2022/12/08 04:58:20;;;;;;;3.90;0.80;;;;;;;;;;6333323;22;20061;-94
2022/12/08 05:00:47;;;;;;;;;;;;;;;;;;6306616;22;20790;-94
2022/12/08 05:03:25;;;;;;;3.97;0.73;;;;;;;;;;6299810;22;19971;-94
2022/12/08 05:06:01;;;;;;;2.22;0.55;;;;;;;;;;6305954;22;20094;-94
2022/12/08 05:08:29;;;;;;;2.22;0.45;;;;;;;;;;6296900;22;20007;-94
2022/12/08 05:11:09;;;;;;;5.15;0.98;;;;;;;;;;6301877;22;20018;-94
2022/12/08 05:16:52;;;;;;;2.33;0.52;;;;;;;;;;6302077;22;20078;-93
2022/12/08 05:19:20;;;;;;;3.58;0.77;;;;;;;;;;6300865;22;19995;-94
2022/12/08 05:21:45;;;;;;;5.13;0.90;;;;;;;;;;6301433;22;20084;-94
2022/12/08 05:24:11;;;;;;;5.55;0.82;;;;;;;;;;6303095;22;20435;-94
2022/12/08 05:26:36;;;;;;;4.80;0.95;;;;;;;;;;6299492;22;20026;-94
2022/12/08 05:29:01;;;;;;;2.30;0.63;;;;;;;;;;6299930;22;20082;-93
2022/12/08 05:31:30;;;;;;;5.20;1.00;;;;;;;;;;6302648;22;20026;-93
2022/12/08 05:33:56;;;;;;;4.40;0.68;;;;;;;;;;6301527;22;20034;-93
2022/12/08 05:36:24;;;;;;;1.30;0.43;;;;;;;;;;6302810;22;20011;-94
2022/12/08 05:38:52;;;;;;;4.30;0.90;;;;;;;;;;6305801;22;20013;-93
2022/12/08 05:41:26;;;;;;;2.78;0.70;;;;;;;;;;6302999;22;20007;-94
2022/12/08 05:43:58;;;;;;;3.80;0.88;;;;;;;;;;6328762;22;20496;-93
2022/12/08 05:46:24;;;;;;;5.65;0.80;;;;;;;;;;6301044;22;20003;-93
2022/12/08 05:48:52;;;;;;;3.78;0.80;;;;;;;;;;6302551;22;20003;-93
2022/12/08 05:51:22;;;;;;;3.40;0.70;;;;;;;;;;6302646;22;20015;-92
2022/12/08 05:53:50;;;;;;;4.47;0.95;;;;;;;;;;6302341;22;20014;-92
2022/12/08 05:56:18;;;;;;;4.28;0.70;;;;;;;;;;6300790;22;20065;-94
2022/12/08 05:58:44;;;;;;;3.33;0.70;;;;;;;;;;6304099;22;20002;-94
2022/12/08 06:01:32;;;;;;;5.20;0.90;;;;;;;;;;6303244;22;20007;-94
2022/12/08 06:04:02;;;;;;;7.10;0.88;;;;;;;;;;6303413;22;20053;-93
2022/12/08 06:06:27;;;;;;;3.88;0.82;;;;;;;;;;6302113;22;20007;-93
2022/12/08 06:08:57;;;;;;;4.80;0.80;;;;;;;;;;6302928;22;20019;-93
2022/12/08 06:11:37;;;;;;;6.13;1.10;;;;;;;;;;6301726;22;20011;-94
2022/12/08 06:14:18;;;;;;;4.95;0.70;;;;;;;;;;6303204;22;20025;-95
2022/12/08 06:16:43;;;;;;;4.57;0.77;;;;;;;;;;6302595;22;20018;-94
2022/12/08 06:19:18;;;;;;;4.18;0.70;;;;;;;;;;6299434;22;20007;-95
2022/12/08 06:21:49;;;;;;;3.40;0.73;;;;;;;;;;6300965;22;20003;-94
2022/12/08 06:24:18;;;;;;;6.28;1.10;;;;;;;;;;6300769;22;20440;-93
2022/12/08 06:26:44;;;;;;;9.10;0.90;;;;;;;;;;6300058;22;20724;-95
2022/12/08 06:29:10;;;;;;;3.45;1.05;;;;;;;;;;6306374;22;20186;-96
2022/12/08 06:31:35;;;;;;;14.85;1.63;;;;;;;;;;6305645;22;20421;-96
2022/12/08 06:34:00;;;;;;;6.15;1.27;;;;;;;;;;6305085;22;19999;-96
2022/12/08 06:36:26;;;;;;;4.20;0.80;;;;;;;;;;6304961;22;20002;-96
2022/12/08 06:38:52;;;;;;;9.02;0.85;;;;;;;;;;6310435;22;20228;-96
2022/12/08 06:41:17;;;;;;;1.95;0.40;;;;;;;;;;6318950;22;20003;-95
2022/12/08 06:43:44;;;;;;;6.18;0.90;;;;;;;;;;6313257;22;20216;-96
2022/12/08 06:46:10;;;;;;;3.00;0.60;;;;;;;;;;6305194;22;20439;-96
2022/12/08 06:48:36;;;;;;;3.25;0.57;;;;;;;;;;6305517;22;20011;-94
2022/12/08 06:51:09;;;;;;;4.68;0.80;;;;;;;;;;6311339;22;20042;-96
2022/12/08 06:54:02;;;;;;;3.08;0.70;;;;;;;;;;6316806;22;20007;-95
2022/12/08 06:56:28;;;;;;;3.70;0.70;;;;;;;;;;6299900;22;20098;-92
2022/12/08 06:58:54;;;;;;;5.32;0.80;;;;;;;;;;6309154;22;19990;-95
2022/12/08 07:01:19;;;;;;;4.70;0.75;;;;;;;;;;6311909;22;20003;-96
2022/12/08 07:03:46;;;;;;;4.65;0.65;;;;;;;;;;6310414;22;20023;-95
2022/12/08 07:06:13;;;;;;;4.47;0.90;;;;;;;;;;6303683;22;20068;-95
2022/12/08 07:08:38;;;;;;;4.22;0.73;;;;;;;;;;6297703;22;20054;-90
2022/12/08 07:11:11;;;;;;;6.47;0.80;;;;;;;;;;6301174;22;20078;-90
2022/12/08 07:13:36;;;;;;;4.82;0.80;;;;;;;;;;6328552;22;20069;-91
2022/12/08 07:16:08;;;;;;;3.63;0.77;;;;;;;;;;6327272;22;20018;-92
2022/12/08 07:18:34;;;;;;;4.88;0.80;;;;;;;;;;6325346;22;20003;-91
2022/12/08 07:21:10;;;;;;;4.88;0.80;;;;;;;;;;6294847;22;20015;-90
2022/12/08 07:23:43;;;;;;;4.18;0.40;;;;;;;;;;6328891;22;20053;-92
2022/12/08 07:26:09;;;;;;;3.97;0.80;;;;;;;;;;6301096;22;20010;-91
2022/12/08 07:28:36;;;;;;;2.90;0.50;;;;;;;;;;6301349;22;20017;-92
2022/12/08 07:31:11;;;;;;;5.10;0.70;;;;;;;;;;6301287;22;20006;-91
2022/12/08 07:33:37;;;;;;;;;;;;;;;;;;6302806;22;20013;-90
2022/12/08 07:36:10;;;;;;;3.55;0.70;;;;;;;;;;6300169;22;19995;-91
2022/12/08 07:38:36;;;;;;;2.30;0.60;;;;;;;;;;6330258;22;20375;-88
2022/12/08 07:41:01;;;;;;;4.60;0.68;;;;;;;;;;6300381;22;20003;-91
2022/12/08 07:43:27;;;;;;;5.05;0.88;;;;;;;;;;6301279;22;20010;-90
2022/12/08 07:45:52;;;;;;;4.18;0.65;;;;;;;;;;6329293;22;20078;-90
2022/12/08 07:48:17;;;;;;;3.60;1.10;;;;;;;;;;6299378;22;20006;-93
2022/12/08 07:50:43;;;;;;;2.65;0.45;;;;;;;;;;6327137;22;20018;-89
2022/12/08 07:53:08;;;;;;;5.18;0.95;;;;;;;;;;6298318;22;20010;-89
2022/12/08 07:55:37;;;;;;;4.10;0.80;;;;;;;;;;6299122;22;20007;-90
2022/12/08 07:58:03;;;;;;;4.57;0.80;;;;;;;;;;6328783;22;20035;-90
2022/12/08 08:00:28;;;;;;;5.35;1.08;;;;;;;;;;6297597;22;20022;-89
2022/12/08 08:02:53;;;;;;;4.90;0.90;;;;;;;;;;6298588;22;20063;-90
2022/12/08 08:05:19;;;;;;;5.28;0.85;;;;;;;;;;6300656;22;20006;-89
2022/12/08 08:07:47;;;;;;;3.35;0.80;;;;;;;;;;6327322;22;20072;-90
2022/12/08 08:10:12;;;;;;;5.22;0.98;;;;;;;;;;6299151;22;20010;-90
2022/12/08 08:12:37;;;;;;;4.22;0.80;;;;;;;;;;6329857;22;20007;-90
2022/12/08 08:15:07;;;;;;;3.45;0.57;;;;;;;;;;6299925;22;20029;-89
2022/12/08 08:17:32;;;;;;;3.58;0.60;;;;;;;;;;6329755;22;20052;-89
2022/12/08 08:19:58;;;;;;;2.60;0.55;;;;;;;;;;6325913;22;20746;-90
2022/12/08 08:22:30;;;;;;;4.20;0.55;;;;;;;;;;6329280;22;20132;-90
2022/12/08 08:24:58;;;;;;;7.45;0.90;;;;;;;;;;6303557;22;20432;-91
2022/12/08 08:27:29;;;;;;;4.32;0.75;;;;;;;;;;6304739;22;20037;-91
2022/12/08 08:30:00;;;;;;;3.33;0.60;;;;;;;;;;6303585;22;20029;-92
2022/12/08 08:32:35;;;;;;;2.80;0.55;;;;;;;;;;6304467;22;20025;-91
2022/12/08 08:35:04;;;;;;;2.72;0.60;;;;;;;;;;6303056;22;20029;-91
2022/12/08 08:37:34;;;;;;;2.95;0.55;;;;;;;;;;6303286;22;20071;-91
2022/12/08 08:40:08;;;;;;;2.97;0.75;;;;;;;;;;6303619;22;20010;-91
2022/12/08 08:42:43;;;;;;;4.47;0.73;;;;;;;;;;6303643;22;20013;-91
2022/12/08 08:45:13;;;;;;;3.58;0.50;;;;;;;;;;6301530;22;20455;-91
2022/12/08 08:47:42;;;;;;;4.68;0.88;;;;;;;;;;6304208;22;20011;-91
2022/12/08 08:50:07;;;;;;;3.92;0.60;;;;;;;;;;6304640;22;20436;-91
2022/12/08 08:52:38;;;;;;;3.72;0.60;;;;;;;;;;6304289;22;20056;-91
2022/12/08 08:55:04;;;;;;;3.45;0.60;;;;;;;;;;6304125;22;19999;-90
2022/12/08 08:57:33;;;;;;;3.25;0.63;;;;;;;;;;6305357;22;20026;-91
2022/12/08 09:00:04;;;;;;;2.05;0.60;;;;;;;;;;6304889;22;20003;-91
2022/12/08 09:02:30;;;;;;;1.67;0.30;;;;;;;;;;6331609;22;20140;-90
2022/12/08 09:05:12;;;;;;;3.83;0.60;;;;;;;;;;6307717;22;20041;-92
2022/12/08 09:07:40;;;;;;;11.70;1.45;;;;;;;;;;6301866;22;20031;-91
2022/12/08 09:10:08;;;;;;;10.27;1.00;;;;;;;;;;6306743;22;20057;-92
2022/12/08 09:12:39;;;;;;;3.30;0.60;;;;;;;;;;6306126;22;20014;-92
2022/12/08 09:15:05;;;;;;;2.53;0.55;;;;;;;;;;6309247;22;20033;-90
2022/12/08 09:17:46;;;;;;;4.43;0.60;;;;;;;;;;6307658;22;20090;-91
2022/12/08 09:20:23;;;;;;;1.83;0.43;;;;;;;;;;6305434;22;20016;-91
2022/12/08 09:22:52;;;;;;;7.00;0.73;;;;;;;;;;6305091;22;20098;-91
2022/12/08 09:25:18;;;;;;;2.00;0.50;;;;;;;;;;6305949;22;20038;-91
2022/12/08 09:27:52;;;;;;;1.63;0.40;;;;;;;;;;6306153;22;20083;-91
2022/12/08 09:30:21;;;;;;;3.00;0.57;;;;;;;;;;6304896;22;20022;-91
2022/12/08 09:32:47;;;;;;;3.63;0.70;;;;;;;;;;6304779;22;20374;-91
2022/12/08 09:35:30;;;;;;;2.47;0.40;;;;;;;;;;6302341;22;20082;-91
2022/12/08 09:38:02;;;;;;;2.00;0.45;;;;;;;;;;6333270;22;20014;-91
2022/12/08 09:40:32;;;;;;;2.97;0.38;;;;;;;;;;6303838;22;20076;-91
2022/12/08 09:43:09;;;;;;;4.15;0.60;;;;;;;;;;6304574;22;20007;-91
2022/12/08 09:45:44;;;;;;;2.40;0.40;;;;;;;;;;6304450;22;20021;-91
2022/12/08 09:48:13;;;;;;;4.80;0.50;;;;;;;;;;6305559;22;20002;-91
2022/12/08 09:51:04;;;;;;;3.33;0.63;;;;;;;;;;6303650;22;20007;-91
2022/12/08 09:53:33;;;;;;;2.15;0.50;;;;;;;;;;6313701;22;20029;-91
2022/12/08 09:56:12;;;;;;;2.53;0.60;;;;;;;;;;6328542;22;20007;-91
2022/12/08 09:58:46;;;;;;;4.22;0.60;;;;;;;;;;6329120;22;19994;-91
2022/12/08 10:01:12;;;;;;;4.47;0.95;;;;;;;;;;6303385;22;20006;-90
2022/12/08 10:03:37;;;;;;;2.10;0.40;;;;;;;;;;6302164;22;20010;-91
2022/12/08 10:06:17;;;;;;;3.72;0.80;;;;;;;;;;6299735;22;20039;-92
2022/12/08 10:09:00;;;;;;;4.97;0.68;;;;;;;;;;6329085;22;20019;-90
2022/12/08 10:12:03;;;;;;;3.88;0.80;;;;;;;;;;6301292;22;20030;-91
2022/12/08 10:14:40;;;;;;;2.88;0.80;;;;;;;;;;6171658;23;20009;-89
2022/12/08 10:17:16;;;;;;;4.00;0.75;;;;;;;;;;6144424;23;20008;-91
2022/12/08 10:19:52;;;;;;;3.20;0.63;;;;;;;;;;6147637;23;20542;-91
2022/12/08 10:22:22;;;;;;;3.97;0.82;;;;;;;;;;6149406;23;20016;-91
2022/12/08 10:24:52;;;;;;;4.38;0.68;;;;;;;;;;6149092;23;20017;-90
2022/12/08 10:27:17;;;;;;;3.63;0.80;;;;;;;;;;6176211;23;20429;-91
2022/12/08 10:29:43;;;;;;;3.13;0.70;;;;;;;;;;6150587;23;20033;-91
2022/12/08 10:32:19;;;;;;;2.97;0.60;;;;;;;;;;6174435;23;20096;-92
2022/12/08 10:34:59;;;;;;;3.92;0.82;;;;;;;;;;6148350;23;20060;-94
2022/12/08 10:37:24;;;;;;;4.32;0.93;;;;;;;;;;6148277;23;20009;-92
2022/12/08 10:39:57;;;;;;;3.70;0.95;;;;;;;;;;6148832;23;20452;-91
2022/12/08 10:42:23;;;;;;;4.13;0.90;;;;;;;;;;6150386;23;20013;-92
2022/12/08 10:44:57;;;;;;;3.55;0.70;;;;;;;;;;6149711;23;20028;-92
2022/12/08 10:47:23;;;;;;;2.88;0.80;;;;;;;;;;6154505;22;20024;-92
2022/12/08 10:50:05;;;;;;;7.53;1.13;;;;;;;;;;6329362;22;20007;-91
2022/12/08 10:52:31;;;;;;;3.20;0.60;;;;;;;;;;6302518;22;20003;-91
2022/12/08 10:54:59;;;;;;;3.97;0.90;;;;;;;;;;6304717;22;20085;-92
2022/12/08 10:57:24;;;;;;;3.65;0.75;;;;;;;;;;6303759;22;19998;-92
2022/12/08 11:00:25;;;;;;;4.93;0.90;;;;;;;;;;6330319;22;20005;-93
2022/12/08 11:02:52;;;;;;;4.50;1.00;;;;;;;;;;6303121;22;19998;-92
2022/12/08 11:05:19;;;;;;;3.28;0.90;;;;;;;;;;6303873;22;20011;-92
2022/12/08 11:08:01;;;;;;;4.32;0.82;;;;;;;;;;6303500;22;20022;-93
2022/12/08 11:10:37;;;;;;;4.75;0.80;;;;;;;;;;6331887;22;19995;-93
2022/12/08 11:13:03;;;;;;;5.70;0.77;;;;;;;;;;6332369;22;19999;-94
2022/12/08 11:15:35;;;;;;;6.35;0.77;;;;;;;;;;6302721;22;20006;-93
2022/12/08 11:18:05;;;;;;;4.63;0.82;;;;;;;;;;6302124;22;20037;-94
2022/12/08 11:20:37;;;;;;;5.35;1.15;;;;;;;;;;6302481;22;20018;-93
2022/12/08 11:23:02;;;;;;;2.47;0.50;;;;;;;;;;6305468;22;20109;-93
2022/12/08 11:25:28;;;;;;;4.30;0.63;;;;;;;;;;6305682;22;20095;-92
2022/12/08 11:27:58;;;;;;;4.43;0.70;;;;;;;;;;6303984;22;20003;-93
2022/12/08 11:30:25;;;;;;;3.97;0.77;;;;;;;;;;6333425;22;19994;-91
2022/12/08 11:33:16;;;;;;;3.35;0.63;;;;;;;;;;6333761;22;20100;-92
2022/12/08 11:35:43;;;;;;;4.03;0.80;;;;;;;;;;6322124;22;20089;-92
2022/12/08 11:38:23;;;;;;;2.25;0.50;;;;;;;;;;6329673;22;20029;-92
2022/12/08 11:40:54;;;;;;;3.72;0.73;;;;;;;;;;6305837;22;20034;-94
2022/12/08 11:43:24;;;;;;;3.58;0.70;;;;;;;;;;6307413;22;20153;-92
2022/12/08 11:45:55;;;;;;;3.58;0.60;;;;;;;;;;6302873;22;20025;-94
2022/12/08 11:48:29;;;;;;;5.53;1.05;;;;;;;;;;6304244;22;20007;-93
2022/12/08 11:51:15;;;;;;;3.60;0.68;;;;;;;;;;6331892;22;20327;-93
2022/12/08 11:53:59;;;;;;;3.20;0.73;;;;;;;;;;6331751;22;19995;-93
2022/12/08 11:56:36;;;;;;;4.25;0.68;;;;;;;;;;6304491;22;20013;-94
2022/12/08 11:59:07;;;;;;;3.55;0.88;;;;;;;;;;6330381;22;20106;-92
2022/12/08 12:01:32;;;;;;;3.75;0.80;;;;;;;;;;6303249;22;20007;-93
2022/12/08 12:04:06;;;;;;;4.47;0.90;;;;;;;;;;6332467;22;20017;-93
2022/12/08 12:06:32;;;;;;;7.13;1.10;;;;;;;;;;6304070;22;20014;-93
2022/12/08 12:09:23;;;;;;;9.02;1.60;;;;;;;;;;6332590;22;20003;-92
2022/12/08 12:12:18;;;;;;;5.10;1.05;;;;;;;;;;6300695;22;20071;-91
2022/12/08 12:14:55;;;;;;;5.95;1.10;;;;;;;;;;6330319;22;20007;-92
2022/12/08 12:17:39;;;;;;;4.05;0.85;;;;;;;;;;6302377;22;20206;-92
2022/12/08 12:20:17;;;;;;;3.28;0.70;;;;;;;;;;6330141;22;20088;-91
2022/12/08 12:22:43;;;;;;;6.30;1.08;;;;;;;;;;6330575;22;20021;-93
2022/12/08 12:25:17;;;;;;;4.25;0.90;;;;;;;;;;6331355;22;20016;-92
2022/12/08 12:27:43;;;;;;;4.72;1.05;;;;;;;;;;6332881;22;20382;-93
2022/12/08 12:30:17;;;;;;;6.30;1.00;;;;;;;;;;6302312;22;20006;-91
2022/12/08 12:32:53;;;;;;;3.47;0.88;;;;;;;;;;6301715;22;20007;-92
2022/12/08 12:35:39;;;;;;;3.92;0.95;;;;;;;;;;6331941;22;20003;-92
2022/12/08 12:38:59;;;;;;;6.75;0.95;;;;;;;;;;6330188;22;20038;-92
2022/12/08 12:40:57;;;;;;;7.70;0.90;;;;;;;;;;6336425;22;20014;-92
2022/12/08 12:43:30;;;;;;;4.40;1.08;;;;;;;;;;6309246;22;20003;-93
2022/12/08 12:46:14;;;;;;;3.45;1.05;;;;;;;;;;6309302;22;20009;-94
2022/12/08 12:48:40;;;;;;;3.97;0.80;;;;;;;;;;6337210;22;20026;-92
2022/12/08 12:51:25;;;;;;;4.97;0.70;;;;;;;;;;6310259;22;20432;-93
2022/12/08 12:53:50;;;;;;;4.90;0.70;;;;;;;;;;6311555;22;20032;-93
2022/12/08 12:56:36;;;;;;;4.05;0.70;;;;;;;;;;6341060;22;19999;-94
2022/12/08 12:59:20;;;;;;;3.55;0.50;;;;;;;;;;6339666;22;19994;-93
2022/12/08 13:01:49;;;;;;;3.70;0.73;;;;;;;;;;6340611;22;20010;-94
2022/12/08 13:04:39;;;;;;;4.95;0.70;;;;;;;;;;6341079;22;20014;-93
2022/12/08 13:07:05;;;;;;;3.97;0.63;;;;;;;;;;6337961;22;20025;-93
2022/12/08 13:09:34;;;;;;;2.45;0.60;;;;;;;;;;6306826;22;20007;-93
2022/12/08 13:12:07;;;;;;;3.53;0.70;;;;;;;;;;6303672;22;20011;-92
2022/12/08 13:14:36;;;;;;;2.95;0.63;;;;;;;;;;6308014;22;20049;-93
2022/12/08 13:17:04;;;;;;;4.05;0.80;;;;;;;;;;6308085;22;20404;-92
2022/12/08 13:19:30;;;;;;;2.25;0.60;;;;;;;;;;6309272;22;19998;-92
2022/12/08 13:21:56;;;;;;;3.65;0.68;;;;;;;;;;6310369;22;20067;-93
2022/12/08 13:24:21;;;;;;;6.47;0.68;;;;;;;;;;6338506;22;20010;-92
2022/12/08 13:26:47;;;;;;;3.67;0.60;;;;;;;;;;6308730;22;20645;-93
2022/12/08 13:29:23;;;;;;;4.75;0.73;;;;;;;;;;6337123;22;20395;-92
2022/12/08 13:31:53;;;;;;;5.32;0.77;;;;;;;;;;6310503;22;20107;-93
2022/12/08 13:34:20;;;;;;;6.18;0.60;;;;;;;;;;6336930;22;20022;-93
2022/12/08 13:37:05;;;;;;;2.78;0.85;;;;;;;;;;6337286;22;20378;-94
2022/12/08 13:39:39;;;;;;;4.30;0.70;;;;;;;;;;6308810;22;20007;-90
2022/12/08 13:42:12;;;;;;;4.07;0.63;;;;;;;;;;6307073;22;20010;-94
2022/12/08 13:44:49;;;;;;;5.43;0.80;;;;;;;;;;6305501;22;20109;-93
2022/12/08 13:47:17;;;;;;;4.68;0.93;;;;;;;;;;6311320;22;20033;-93
2022/12/08 13:49:54;;;;;;;2.63;0.57;;;;;;;;;;6317116;22;20007;-94
2022/12/08 13:52:40;;;;;;;2.72;0.65;;;;;;;;;;6310539;22;20003;-94
2022/12/08 13:55:14;;;;;;;3.33;0.63;;;;;;;;;;6336844;22;20015;-94
2022/12/08 13:57:41;;;;;;;3.53;0.50;;;;;;;;;;6341293;22;20011;-94
2022/12/08 14:00:19;;;;;;;4.60;0.90;;;;;;;;;;6317824;22;19998;-92
2022/12/08 14:02:47;;;;;;;5.55;1.08;;;;;;;;;;6340697;22;20337;-92
2022/12/08 14:05:38;;;;;;;6.13;0.90;;;;;;;;;;6340865;22;20366;-94
2022/12/08 14:08:06;;;;;;;4.70;0.98;;;;;;;;;;6337753;22;20033;-93
2022/12/08 14:10:32;;;;;;;6.30;0.95;;;;;;;;;;6337034;22;20020;-93
2022/12/08 14:13:02;;;;;;;6.43;1.48;;;;;;;;;;6336550;22;20007;-92
2022/12/08 14:15:31;;;;;;;5.85;0.80;;;;;;;;;;6334482;22;20005;-93
2022/12/08 14:17:57;;;;;;;4.63;1.00;;;;;;;;;;6334718;22;20009;-92
2022/12/08 14:20:30;;;;;;;6.10;0.90;;;;;;;;;;6335607;22;20002;-93
2022/12/08 14:22:57;;;;;;;9.37;1.27;;;;;;;;;;6306928;22;20003;-93
2022/12/08 14:25:24;;;;;;;6.00;1.33;;;;;;;;;;6307598;22;19999;-94
2022/12/08 14:27:55;;;;;;;6.28;1.13;;;;;;;;;;6308769;22;20015;-95
2022/12/08 14:30:27;;;;;;;2.75;0.60;;;;;;;;;;6307617;22;20059;-94
2022/12/08 14:32:59;;;;;;;6.75;0.98;;;;;;;;;;6333341;22;20021;-94
2022/12/08 14:35:25;;;;;;;6.78;1.20;;;;;;;;;;6333781;22;19994;-94
2022/12/08 14:37:53;;;;;;;6.10;1.02;;;;;;;;;;6333439;22;20336;-94
2022/12/08 14:40:18;;;;;;;5.05;0.90;;;;;;;;;;6304859;22;19998;-95
2022/12/08 14:42:50;;;;;;;8.25;1.20;;;;;;;;;;6303832;22;20089;-94
2022/12/08 14:45:16;;;;;;;5.55;0.95;;;;;;;;;;6331472;22;20010;-92
2022/12/08 14:47:54;;;;;;;7.63;1.10;;;;;;;;;;6307568;22;20013;-92
2022/12/08 14:50:36;;;;;;;5.35;1.00;;;;;;;;;;6334860;22;20003;-93
2022/12/08 14:53:02;;;;;;;5.70;1.20;;;;;;;;;;6331504;22;20011;-94
2022/12/08 14:55:35;;;;;;;5.45;0.82;;;;;;;;;;6309707;22;20318;-95
2022/12/08 14:58:01;;;;;;;4.80;1.00;;;;;;;;;;6336378;22;20063;-93
2022/12/08 15:00:26;;;;;;;5.93;1.00;;;;;;;;;;6307375;22;20436;-94
2022/12/08 15:02:52;;;;;;;4.53;1.00;;;;;;;;;;6305957;22;20013;-94
2022/12/08 15:05:19;;;;;;;5.43;1.05;;;;;;;;;;6305660;22;20008;-95
2022/12/08 15:07:58;;;;;;;7.05;1.10;;;;;;;;;;6299792;22;20027;-94
2022/12/08 15:10:26;;;;;;;4.40;1.23;;;;;;;;;;6299900;22;20092;-93
2022/12/08 15:13:06;;;;;;;9.50;1.20;;;;;;;;;;6300584;22;20015;-94
2022/12/08 15:15:44;;;;;;;6.28;1.25;;;;;;;;;;6302220;22;20007;-93